CFG2KV EDDH-EFHK
Flight info
| Callsign | CFG2KV |
|---|---|
| Flight time | 1h 35m |
| Altitude | 37000 |
| Route | LUGEG3G/33 LUGEG P605 GESKA DCT EKRAL DCT ALAMI DCT OKEVU DCT EVADI Y370 DIVAM |
| Aircraft | A320/M-SDE3FGHIRWY/LB1 |
Departure
| Time | 2026-05-07 19:01 |
|---|---|
| Airport | Hamburg Helmut Schmidt Airport (EDDH) |
Arrival
| Time | 2026-05-07 20:36 |
|---|---|
| Airport | Helsinki Vantaa Airport (EFHK) |
| Time | Latitude | Longitude | Altitude | Speed | Heading |
|---|---|---|---|---|---|
| 2026-05-07 18:30 | 53.63247 | 10.00361 | 51 ft | 0 kts | 85° |
| 2026-05-07 18:53 | 53.63246 | 10.00323 | 51 ft | 4 kts | 87° |
| 2026-05-07 18:53 | 53.63244 | 10.00277 | 51 ft | 4 kts | 87° |
| 2026-05-07 18:53 | 53.63243 | 10.00234 | 51 ft | 2 kts | 87° |
| 2026-05-07 18:54 | 53.63244 | 10.00198 | 51 ft | 4 kts | 119° |
| 2026-05-07 18:54 | 53.63261 | 10.00175 | 47 ft | 3 kts | 176° |
| 2026-05-07 18:54 | 53.63272 | 10.00174 | 48 ft | 0 kts | 176° |
| 2026-05-07 18:56 | 53.63233 | 10.00178 | 26 ft | 9 kts | 176° |
| 2026-05-07 18:57 | 53.63173 | 10.00184 | 51 ft | 8 kts | 176° |
| 2026-05-07 18:57 | 53.63119 | 10.00191 | 51 ft | 7 kts | 175° |
| 2026-05-07 18:57 | 53.63072 | 10.00185 | 51 ft | 6 kts | 203° |
| 2026-05-07 18:57 | 53.63038 | 10.00151 | 51 ft | 5 kts | 213° |
| 2026-05-07 18:58 | 53.62989 | 10.00096 | 51 ft | 12 kts | 212° |
| 2026-05-07 18:58 | 53.62924 | 10.00009 | 49 ft | 12 kts | 234° |
| 2026-05-07 18:58 | 53.62891 | 9.99894 | 47 ft | 10 kts | 243° |
| 2026-05-07 18:58 | 53.62862 | 9.99787 | 47 ft | 10 kts | 261° |
| 2026-05-07 18:59 | 53.62897 | 9.99717 | 50 ft | 3 kts | 334° |
| 2026-05-07 18:59 | 53.62899 | 9.99716 | 50 ft | 0 kts | 334° |
| 2026-05-07 19:00 | 53.62975 | 9.99650 | 49 ft | 42 kts | 332° |
| 2026-05-07 19:01 | 53.63464 | 9.99230 | 52 ft | 112 kts | 333° |
| 2026-05-07 19:01 | 53.64319 | 9.98491 | 71 ft | 161 kts | 338° |
| 2026-05-07 19:01 | 53.65296 | 9.97693 | 753 ft | 155 kts | 337° |
| 2026-05-07 19:01 | 53.66308 | 9.96879 | 1334 ft | 165 kts | 338° |
| 2026-05-07 19:02 | 53.67355 | 9.96010 | 1947 ft | 173 kts | 338° |
| 2026-05-07 19:02 | 53.68499 | 9.95079 | 2376 ft | 191 kts | 341° |
| 2026-05-07 19:02 | 53.69861 | 9.94713 | 2692 ft | 209 kts | 8° |
| 2026-05-07 19:02 | 53.71332 | 9.94918 | 3386 ft | 214 kts | 7° |
| 2026-05-07 19:03 | 53.72816 | 9.95313 | 4015 ft | 220 kts | 21° |
| 2026-05-07 19:03 | 53.74064 | 9.96747 | 4773 ft | 218 kts | 54° |
| 2026-05-07 19:03 | 53.74809 | 9.99020 | 5541 ft | 222 kts | 65° |
| 2026-05-07 19:03 | 53.75463 | 10.01361 | 6490 ft | 218 kts | 66° |
| 2026-05-07 19:04 | 53.76104 | 10.03758 | 7046 ft | 235 kts | 65° |
| 2026-05-07 19:04 | 53.76817 | 10.06392 | 7426 ft | 258 kts | 65° |
| 2026-05-07 19:04 | 53.77620 | 10.09190 | 8104 ft | 269 kts | 64° |
| 2026-05-07 19:04 | 53.78460 | 10.12056 | 8914 ft | 276 kts | 64° |
| 2026-05-07 19:05 | 53.79323 | 10.14990 | 9737 ft | 282 kts | 64° |
| 2026-05-07 19:05 | 53.80198 | 10.17985 | 10049 ft | 285 kts | 64° |
| 2026-05-07 19:05 | 53.81087 | 10.21046 | 10128 ft | 302 kts | 64° |
| 2026-05-07 19:05 | 53.82027 | 10.24311 | 10137 ft | 318 kts | 64° |
| 2026-05-07 19:06 | 53.82996 | 10.27688 | 10201 ft | 322 kts | 64° |
| 2026-05-07 19:06 | 53.84967 | 10.34579 | 11767 ft | 330 kts | 64° |
| 2026-05-07 19:06 | 53.85969 | 10.38102 | 12531 ft | 335 kts | 64° |
| 2026-05-07 19:07 | 53.86985 | 10.41681 | 13286 ft | 339 kts | 64° |
| 2026-05-07 19:07 | 53.88016 | 10.45314 | 14011 ft | 345 kts | 64° |
| 2026-05-07 19:07 | 53.89063 | 10.49010 | 14677 ft | 349 kts | 64° |
| 2026-05-07 19:07 | 53.90118 | 10.52739 | 15335 ft | 353 kts | 64° |
| 2026-05-07 19:08 | 53.91185 | 10.56515 | 16009 ft | 356 kts | 64° |
| 2026-05-07 19:08 | 53.92260 | 10.60325 | 16687 ft | 359 kts | 64° |
| 2026-05-07 19:08 | 53.93352 | 10.64169 | 17339 ft | 363 kts | 62° |
| 2026-05-07 19:08 | 53.94705 | 10.67800 | 17987 ft | 366 kts | 51° |
| 2026-05-07 19:09 | 53.96407 | 10.71042 | 18596 ft | 370 kts | 46° |
| 2026-05-07 19:09 | 53.98178 | 10.74242 | 19159 ft | 373 kts | 46° |
| 2026-05-07 19:09 | 53.99966 | 10.77474 | 19741 ft | 377 kts | 46° |
| 2026-05-07 19:09 | 54.01766 | 10.80740 | 20295 ft | 380 kts | 46° |
| 2026-05-07 19:10 | 54.03577 | 10.84035 | 20896 ft | 383 kts | 46° |
| 2026-05-07 19:10 | 54.05396 | 10.87355 | 21471 ft | 386 kts | 46° |
| 2026-05-07 19:10 | 54.07208 | 10.90669 | 22048 ft | 388 kts | 46° |
| 2026-05-07 19:10 | 54.09054 | 10.94052 | 22610 ft | 391 kts | 46° |
| 2026-05-07 19:11 | 54.10939 | 10.97509 | 23186 ft | 395 kts | 46° |
| 2026-05-07 19:11 | 54.12812 | 11.00954 | 23739 ft | 398 kts | 46° |
| 2026-05-07 19:11 | 54.14695 | 11.04428 | 24195 ft | 401 kts | 46° |
| 2026-05-07 19:11 | 54.16565 | 11.07899 | 24658 ft | 403 kts | 47° |
| 2026-05-07 19:12 | 54.18462 | 11.11438 | 25124 ft | 405 kts | 47° |
| 2026-05-07 19:12 | 54.20371 | 11.15005 | 25561 ft | 407 kts | 47° |
| 2026-05-07 19:12 | 54.22286 | 11.18577 | 25996 ft | 409 kts | 47° |
| 2026-05-07 19:12 | 54.24214 | 11.22173 | 26450 ft | 411 kts | 47° |
| 2026-05-07 19:13 | 54.26145 | 11.25788 | 26885 ft | 412 kts | 47° |
| 2026-05-07 19:13 | 54.28082 | 11.29422 | 27111 ft | 413 kts | 47° |
| 2026-05-07 19:13 | 54.30015 | 11.33057 | 27256 ft | 415 kts | 47° |
| 2026-05-07 19:13 | 54.31962 | 11.36725 | 27678 ft | 416 kts | 47° |
| 2026-05-07 19:14 | 54.33914 | 11.40402 | 28095 ft | 418 kts | 47° |
| 2026-05-07 19:14 | 54.35874 | 11.44099 | 28496 ft | 420 kts | 47° |
| 2026-05-07 19:14 | 54.37844 | 11.47816 | 28880 ft | 422 kts | 47° |
| 2026-05-07 19:14 | 54.39826 | 11.51556 | 29267 ft | 424 kts | 47° |
| 2026-05-07 19:15 | 54.41815 | 11.55311 | 29631 ft | 426 kts | 47° |
| 2026-05-07 19:15 | 54.43808 | 11.59082 | 30008 ft | 427 kts | 47° |
| 2026-05-07 19:15 | 54.45811 | 11.62877 | 30328 ft | 429 kts | 48° |
| 2026-05-07 19:15 | 54.47814 | 11.66672 | 30694 ft | 429 kts | 48° |
| 2026-05-07 19:16 | 54.49819 | 11.70478 | 31011 ft | 429 kts | 48° |
| 2026-05-07 19:16 | 54.51825 | 11.74290 | 31301 ft | 430 kts | 48° |
| 2026-05-07 19:16 | 54.53837 | 11.78115 | 31579 ft | 431 kts | 48° |
| 2026-05-07 19:16 | 54.55853 | 11.81952 | 31846 ft | 433 kts | 48° |
| 2026-05-07 19:17 | 54.57865 | 11.85789 | 32206 ft | 431 kts | 48° |
| 2026-05-07 19:17 | 54.59847 | 11.89583 | 32589 ft | 430 kts | 48° |
| 2026-05-07 19:17 | 54.61842 | 11.93409 | 32943 ft | 429 kts | 47° |
| 2026-05-07 19:17 | 54.63896 | 11.97161 | 33212 ft | 431 kts | 45° |
| 2026-05-07 19:18 | 54.66025 | 12.00794 | 33528 ft | 430 kts | 44° |
| 2026-05-07 19:18 | 54.68197 | 12.04352 | 33916 ft | 428 kts | 43° |
| 2026-05-07 19:18 | 54.70359 | 12.07859 | 34355 ft | 424 kts | 43° |
| 2026-05-07 19:18 | 54.72499 | 12.11360 | 34653 ft | 424 kts | 44° |
| 2026-05-07 19:19 | 54.74628 | 12.14895 | 34868 ft | 425 kts | 44° |
| 2026-05-07 19:19 | 54.76754 | 12.18476 | 35071 ft | 427 kts | 44° |
| 2026-05-07 19:19 | 54.78873 | 12.22079 | 35264 ft | 428 kts | 45° |
| 2026-05-07 19:19 | 54.81000 | 12.25715 | 35457 ft | 430 kts | 45° |
| 2026-05-07 19:20 | 54.83131 | 12.29362 | 35656 ft | 431 kts | 45° |
| 2026-05-07 19:20 | 54.85272 | 12.33025 | 35832 ft | 433 kts | 45° |
| 2026-05-07 19:20 | 54.87419 | 12.36699 | 36017 ft | 434 kts | 44° |
| 2026-05-07 19:20 | 54.89570 | 12.40382 | 36191 ft | 435 kts | 44° |
| 2026-05-07 19:21 | 54.91729 | 12.44082 | 36372 ft | 436 kts | 44° |
| 2026-05-07 19:21 | 54.93890 | 12.47791 | 36555 ft | 437 kts | 44° |
| 2026-05-07 19:21 | 54.96060 | 12.51514 | 36744 ft | 438 kts | 44° |
| 2026-05-07 19:21 | 54.98230 | 12.55246 | 36903 ft | 440 kts | 44° |
| 2026-05-07 19:22 | 55.00412 | 12.58999 | 37074 ft | 440 kts | 44° |
| 2026-05-07 19:22 | 55.02592 | 12.62759 | 37159 ft | 442 kts | 44° |
| 2026-05-07 19:22 | 55.06923 | 12.70252 | 37156 ft | 442 kts | 44° |
| 2026-05-07 19:23 | 55.11295 | 12.77842 | 37162 ft | 443 kts | 44° |
| 2026-05-07 19:23 | 55.15552 | 12.85258 | 37153 ft | 443 kts | 44° |
| 2026-05-07 19:24 | 55.19919 | 12.92896 | 37161 ft | 443 kts | 44° |
| 2026-05-07 19:24 | 55.24273 | 13.00528 | 37152 ft | 443 kts | 45° |
| 2026-05-07 19:25 | 55.28633 | 13.08191 | 37156 ft | 443 kts | 45° |
| 2026-05-07 19:25 | 55.32976 | 13.15868 | 37151 ft | 443 kts | 45° |
| 2026-05-07 19:26 | 55.37318 | 13.23574 | 37151 ft | 444 kts | 45° |
| 2026-05-07 19:26 | 55.41665 | 13.31290 | 37143 ft | 444 kts | 45° |
| 2026-05-07 19:27 | 55.46008 | 13.39025 | 37147 ft | 444 kts | 45° |
| 2026-05-07 19:27 | 55.50311 | 13.46732 | 37143 ft | 444 kts | 45° |
| 2026-05-07 19:28 | 55.54639 | 13.54504 | 37140 ft | 444 kts | 45° |
| 2026-05-07 19:28 | 55.58973 | 13.62297 | 37165 ft | 445 kts | 45° |
| 2026-05-07 19:29 | 55.63305 | 13.70116 | 37166 ft | 445 kts | 45° |
| 2026-05-07 19:29 | 55.67628 | 13.77945 | 37166 ft | 445 kts | 45° |
| 2026-05-07 19:30 | 55.71942 | 13.85799 | 37164 ft | 445 kts | 45° |
| 2026-05-07 19:30 | 55.76249 | 13.93673 | 37165 ft | 445 kts | 45° |
| 2026-05-07 19:31 | 55.79827 | 14.00241 | 37175 ft | 445 kts | 45° |
| 2026-05-07 19:31 | 55.84146 | 14.08209 | 37150 ft | 445 kts | 45° |
| 2026-05-07 19:32 | 55.88406 | 14.16097 | 37153 ft | 445 kts | 45° |
| 2026-05-07 19:32 | 55.92692 | 14.24056 | 37151 ft | 445 kts | 46° |
| 2026-05-07 19:33 | 55.96970 | 14.32037 | 37140 ft | 445 kts | 46° |
| 2026-05-07 19:33 | 56.01244 | 14.40048 | 37149 ft | 446 kts | 46° |
| 2026-05-07 19:34 | 56.05523 | 14.48078 | 37152 ft | 446 kts | 46° |
| 2026-05-07 19:34 | 56.09800 | 14.56128 | 37159 ft | 446 kts | 46° |
| 2026-05-07 19:35 | 56.14075 | 14.64200 | 37164 ft | 446 kts | 46° |
| 2026-05-07 19:35 | 56.18344 | 14.72295 | 37167 ft | 446 kts | 46° |
| 2026-05-07 19:36 | 56.22604 | 14.80413 | 37173 ft | 446 kts | 46° |
| 2026-05-07 19:36 | 56.26858 | 14.88546 | 37171 ft | 446 kts | 46° |
| 2026-05-07 19:37 | 56.31112 | 14.96698 | 37172 ft | 446 kts | 46° |
| 2026-05-07 19:37 | 56.35361 | 15.04857 | 37174 ft | 446 kts | 46° |
| 2026-05-07 19:38 | 56.39574 | 15.12985 | 37162 ft | 446 kts | 46° |
| 2026-05-07 19:38 | 56.43803 | 15.21183 | 37158 ft | 446 kts | 46° |
| 2026-05-07 19:39 | 56.48044 | 15.29430 | 37164 ft | 447 kts | 46° |
| 2026-05-07 19:39 | 56.52277 | 15.37689 | 37171 ft | 448 kts | 46° |
| 2026-05-07 19:40 | 56.56515 | 15.45978 | 37171 ft | 448 kts | 46° |
| 2026-05-07 19:40 | 56.60747 | 15.54284 | 37176 ft | 448 kts | 46° |
| 2026-05-07 19:41 | 56.64979 | 15.62630 | 37172 ft | 449 kts | 46° |
| 2026-05-07 19:41 | 56.69195 | 15.70979 | 37188 ft | 449 kts | 46° |
| 2026-05-07 19:42 | 56.73391 | 15.79316 | 37174 ft | 448 kts | 46° |
| 2026-05-07 19:42 | 56.77600 | 15.87707 | 37172 ft | 448 kts | 46° |
| 2026-05-07 19:43 | 56.81808 | 15.96112 | 37172 ft | 448 kts | 46° |
| 2026-05-07 19:43 | 56.86010 | 16.04535 | 37163 ft | 449 kts | 46° |
| 2026-05-07 19:44 | 56.90212 | 16.12988 | 37166 ft | 450 kts | 46° |
| 2026-05-07 19:44 | 56.94413 | 16.21489 | 37158 ft | 450 kts | 46° |
| 2026-05-07 19:45 | 56.98614 | 16.30020 | 37179 ft | 451 kts | 47° |
| 2026-05-07 19:45 | 57.02817 | 16.38582 | 37170 ft | 451 kts | 47° |
| 2026-05-07 19:46 | 57.07006 | 16.47145 | 37167 ft | 451 kts | 47° |
| 2026-05-07 19:46 | 57.11174 | 16.55698 | 37188 ft | 451 kts | 47° |
| 2026-05-07 19:47 | 57.15366 | 16.64333 | 37175 ft | 451 kts | 46° |
| 2026-05-07 19:47 | 57.19550 | 16.72966 | 37175 ft | 452 kts | 46° |
| 2026-05-07 19:48 | 57.23731 | 16.81625 | 37176 ft | 452 kts | 46° |
| 2026-05-07 19:48 | 57.27905 | 16.90308 | 37162 ft | 452 kts | 47° |
| 2026-05-07 19:49 | 57.32067 | 16.99035 | 37162 ft | 453 kts | 47° |
| 2026-05-07 19:49 | 57.36235 | 17.07780 | 37170 ft | 453 kts | 46° |
| 2026-05-07 19:50 | 57.40407 | 17.16547 | 37165 ft | 454 kts | 47° |
| 2026-05-07 19:50 | 57.44576 | 17.25344 | 37165 ft | 454 kts | 47° |
| 2026-05-07 19:51 | 57.48744 | 17.34173 | 37167 ft | 454 kts | 47° |
| 2026-05-07 19:51 | 57.52902 | 17.43013 | 37168 ft | 454 kts | 47° |
| 2026-05-07 19:52 | 57.57050 | 17.51885 | 37171 ft | 454 kts | 47° |
| 2026-05-07 19:52 | 57.61169 | 17.60746 | 37171 ft | 454 kts | 47° |
| 2026-05-07 19:53 | 57.65306 | 17.69666 | 37172 ft | 454 kts | 47° |
| 2026-05-07 19:53 | 57.69443 | 17.78608 | 37172 ft | 454 kts | 47° |
| 2026-05-07 19:54 | 57.73576 | 17.87569 | 37167 ft | 454 kts | 47° |
| 2026-05-07 19:54 | 57.77698 | 17.96543 | 37178 ft | 455 kts | 47° |
| 2026-05-07 19:55 | 57.81800 | 18.05495 | 37162 ft | 456 kts | 47° |
| 2026-05-07 19:55 | 57.85928 | 18.14538 | 37162 ft | 457 kts | 47° |
| 2026-05-07 19:56 | 57.90054 | 18.23637 | 37161 ft | 457 kts | 47° |
| 2026-05-07 19:56 | 57.94176 | 18.32758 | 37168 ft | 458 kts | 47° |
| 2026-05-07 19:57 | 57.98293 | 18.41900 | 37192 ft | 458 kts | 47° |
| 2026-05-07 19:57 | 58.02412 | 18.51079 | 37186 ft | 459 kts | 47° |
| 2026-05-07 19:58 | 58.06534 | 18.60306 | 37180 ft | 460 kts | 48° |
| 2026-05-07 19:58 | 58.10654 | 18.69558 | 37181 ft | 460 kts | 48° |
| 2026-05-07 19:59 | 58.14771 | 18.78821 | 37169 ft | 460 kts | 48° |
| 2026-05-07 19:59 | 58.18878 | 18.88130 | 37173 ft | 461 kts | 48° |
| 2026-05-07 20:00 | 58.23002 | 18.97523 | 37189 ft | 465 kts | 48° |
| 2026-05-07 20:00 | 58.27142 | 19.06986 | 37190 ft | 466 kts | 48° |
| 2026-05-07 20:01 | 58.31283 | 19.16451 | 37190 ft | 466 kts | 48° |
| 2026-05-07 20:01 | 58.35416 | 19.25941 | 37190 ft | 466 kts | 48° |
| 2026-05-07 20:02 | 58.39541 | 19.35485 | 37190 ft | 466 kts | 48° |
| 2026-05-07 20:02 | 58.43662 | 19.45058 | 37206 ft | 467 kts | 48° |
| 2026-05-07 20:03 | 58.47762 | 19.54579 | 37192 ft | 467 kts | 48° |
| 2026-05-07 20:03 | 58.51906 | 19.64277 | 37186 ft | 468 kts | 48° |
| 2026-05-07 20:04 | 58.55985 | 19.73873 | 37189 ft | 468 kts | 48° |
| 2026-05-07 20:04 | 58.60092 | 19.83550 | 37176 ft | 468 kts | 48° |
| 2026-05-07 20:05 | 58.64202 | 19.93280 | 37199 ft | 469 kts | 48° |
| 2026-05-07 20:05 | 58.68308 | 20.03043 | 37184 ft | 470 kts | 48° |
| 2026-05-07 20:06 | 58.72409 | 20.12835 | 37186 ft | 470 kts | 48° |
| 2026-05-07 20:06 | 58.76509 | 20.22660 | 37182 ft | 470 kts | 48° |
| 2026-05-07 20:07 | 58.80573 | 20.32439 | 37184 ft | 471 kts | 48° |
| 2026-05-07 20:07 | 58.84659 | 20.42316 | 37212 ft | 471 kts | 48° |
| 2026-05-07 20:08 | 58.88745 | 20.52233 | 37189 ft | 472 kts | 48° |
| 2026-05-07 20:08 | 58.92824 | 20.62182 | 37181 ft | 472 kts | 48° |
| 2026-05-07 20:09 | 58.96905 | 20.72162 | 37177 ft | 473 kts | 48° |
| 2026-05-07 20:10 | 59.03020 | 20.87209 | 37159 ft | 474 kts | 49° |
| 2026-05-07 20:10 | 59.06751 | 20.97801 | 37193 ft | 477 kts | 56° |
| 2026-05-07 20:11 | 59.10219 | 21.08846 | 37170 ft | 479 kts | 56° |
| 2026-05-07 20:11 | 59.13695 | 21.19912 | 37165 ft | 479 kts | 56° |
| 2026-05-07 20:12 | 59.17141 | 21.30951 | 37180 ft | 480 kts | 56° |
| 2026-05-07 20:12 | 59.20597 | 21.42100 | 37181 ft | 481 kts | 56° |
| 2026-05-07 20:13 | 59.24053 | 21.53285 | 37186 ft | 481 kts | 56° |
| 2026-05-07 20:13 | 59.27990 | 21.63764 | 37191 ft | 479 kts | 49° |
| 2026-05-07 20:13 | 59.30019 | 21.68931 | 36934 ft | 479 kts | 49° |
| 2026-05-07 20:14 | 59.32055 | 21.74099 | 36675 ft | 479 kts | 49° |
| 2026-05-07 20:14 | 59.34089 | 21.79263 | 36370 ft | 478 kts | 49° |
| 2026-05-07 20:14 | 59.36111 | 21.84413 | 35827 ft | 475 kts | 49° |
| 2026-05-07 20:14 | 59.38116 | 21.89546 | 35253 ft | 473 kts | 49° |
| 2026-05-07 20:15 | 59.40112 | 21.94682 | 34658 ft | 472 kts | 49° |
| 2026-05-07 20:15 | 59.42095 | 21.99798 | 34041 ft | 471 kts | 48° |
| 2026-05-07 20:15 | 59.44071 | 22.04912 | 33426 ft | 468 kts | 48° |
| 2026-05-07 20:15 | 59.46028 | 22.09987 | 32907 ft | 464 kts | 48° |
| 2026-05-07 20:16 | 59.47974 | 22.15040 | 32264 ft | 463 kts | 48° |
| 2026-05-07 20:16 | 59.49913 | 22.20083 | 31695 ft | 461 kts | 48° |
| 2026-05-07 20:16 | 59.51839 | 22.25107 | 31126 ft | 458 kts | 48° |
| 2026-05-07 20:16 | 59.53755 | 22.30110 | 30575 ft | 456 kts | 48° |
| 2026-05-07 20:17 | 59.55663 | 22.35096 | 29979 ft | 454 kts | 48° |
| 2026-05-07 20:17 | 59.57554 | 22.40057 | 29436 ft | 450 kts | 48° |
| 2026-05-07 20:17 | 59.59425 | 22.44976 | 28901 ft | 446 kts | 48° |
| 2026-05-07 20:17 | 59.61278 | 22.49853 | 28390 ft | 441 kts | 48° |
| 2026-05-07 20:18 | 59.63089 | 22.54625 | 27888 ft | 438 kts | 48° |
| 2026-05-07 20:18 | 59.64314 | 22.57863 | 27556 ft | 435 kts | 48° |
| 2026-05-07 20:18 | 59.66699 | 22.64184 | 26896 ft | 431 kts | 48° |
| 2026-05-07 20:18 | 59.68485 | 22.68924 | 26403 ft | 428 kts | 48° |
| 2026-05-07 20:19 | 59.70257 | 22.73635 | 25901 ft | 426 kts | 48° |
| 2026-05-07 20:19 | 59.72012 | 22.78311 | 25379 ft | 424 kts | 48° |
| 2026-05-07 20:19 | 59.73200 | 22.81483 | 25033 ft | 423 kts | 48° |
| 2026-05-07 20:19 | 59.74951 | 22.86164 | 24498 ft | 422 kts | 48° |
| 2026-05-07 20:20 | 59.76698 | 22.90836 | 23950 ft | 421 kts | 49° |
| 2026-05-07 20:20 | 59.78419 | 22.95449 | 23364 ft | 421 kts | 49° |
| 2026-05-07 20:20 | 59.80153 | 23.00106 | 22818 ft | 418 kts | 49° |
| 2026-05-07 20:20 | 59.81895 | 23.04799 | 22276 ft | 416 kts | 49° |
| 2026-05-07 20:21 | 59.83595 | 23.09390 | 21805 ft | 412 kts | 49° |
| 2026-05-07 20:21 | 59.85285 | 23.13963 | 21383 ft | 407 kts | 49° |
| 2026-05-07 20:21 | 59.86960 | 23.18504 | 20809 ft | 407 kts | 49° |
| 2026-05-07 20:21 | 59.88615 | 23.23007 | 20476 ft | 400 kts | 48° |
| 2026-05-07 20:22 | 59.90254 | 23.27471 | 19982 ft | 398 kts | 48° |
| 2026-05-07 20:22 | 59.91882 | 23.31917 | 19535 ft | 395 kts | 49° |
| 2026-05-07 20:22 | 59.93470 | 23.36265 | 19102 ft | 391 kts | 49° |
| 2026-05-07 20:22 | 59.95064 | 23.40635 | 18687 ft | 388 kts | 49° |
| 2026-05-07 20:23 | 59.96645 | 23.44968 | 18251 ft | 385 kts | 49° |
| 2026-05-07 20:23 | 59.98212 | 23.49273 | 17783 ft | 381 kts | 49° |
| 2026-05-07 20:23 | 59.99764 | 23.53531 | 17333 ft | 377 kts | 49° |
| 2026-05-07 20:23 | 60.01299 | 23.57756 | 16892 ft | 374 kts | 49° |
| 2026-05-07 20:24 | 60.02818 | 23.61945 | 16452 ft | 371 kts | 49° |
| 2026-05-07 20:24 | 60.04324 | 23.66112 | 16044 ft | 368 kts | 49° |
| 2026-05-07 20:24 | 60.05811 | 23.70237 | 15636 ft | 364 kts | 49° |
| 2026-05-07 20:24 | 60.07288 | 23.74338 | 15234 ft | 361 kts | 49° |
| 2026-05-07 20:25 | 60.08750 | 23.78406 | 14856 ft | 359 kts | 49° |
| 2026-05-07 20:25 | 60.10206 | 23.82469 | 14413 ft | 357 kts | 49° |
| 2026-05-07 20:25 | 60.11646 | 23.86494 | 14022 ft | 354 kts | 49° |
| 2026-05-07 20:25 | 60.13076 | 23.90496 | 13589 ft | 351 kts | 49° |
| 2026-05-07 20:26 | 60.14491 | 23.94453 | 13148 ft | 345 kts | 49° |
| 2026-05-07 20:26 | 60.15874 | 23.98335 | 12357 ft | 339 kts | 50° |
| 2026-05-07 20:26 | 60.17220 | 24.02119 | 11922 ft | 323 kts | 50° |
| 2026-05-07 20:26 | 60.18493 | 24.05705 | 11450 ft | 311 kts | 50° |
| 2026-05-07 20:27 | 60.19737 | 24.09203 | 10858 ft | 304 kts | 51° |
| 2026-05-07 20:27 | 60.20954 | 24.12629 | 10246 ft | 299 kts | 51° |
| 2026-05-07 20:27 | 60.22144 | 24.15987 | 9657 ft | 291 kts | 51° |
| 2026-05-07 20:27 | 60.23292 | 24.19233 | 9268 ft | 278 kts | 51° |
| 2026-05-07 20:28 | 60.24383 | 24.22331 | 8888 ft | 265 kts | 52° |
| 2026-05-07 20:28 | 60.25429 | 24.25316 | 8504 ft | 260 kts | 52° |
| 2026-05-07 20:28 | 60.26473 | 24.28287 | 8125 ft | 259 kts | 52° |
| 2026-05-07 20:28 | 60.27514 | 24.31247 | 7744 ft | 258 kts | 52° |
| 2026-05-07 20:29 | 60.28548 | 24.34199 | 7354 ft | 258 kts | 53° |
| 2026-05-07 20:29 | 60.29571 | 24.37182 | 6934 ft | 259 kts | 53° |
| 2026-05-07 20:29 | 60.30597 | 24.40141 | 6571 ft | 257 kts | 53° |
| 2026-05-07 20:29 | 60.31622 | 24.43076 | 6187 ft | 255 kts | 53° |
| 2026-05-07 20:30 | 60.32642 | 24.45991 | 5772 ft | 254 kts | 53° |
| 2026-05-07 20:30 | 60.33664 | 24.48902 | 5307 ft | 255 kts | 52° |
| 2026-05-07 20:30 | 60.34698 | 24.51824 | 4874 ft | 255 kts | 52° |
| 2026-05-07 20:30 | 60.35714 | 24.54677 | 4517 ft | 255 kts | 52° |
| 2026-05-07 20:31 | 60.36760 | 24.57592 | 4102 ft | 256 kts | 51° |
| 2026-05-07 20:31 | 60.37805 | 24.60489 | 3830 ft | 254 kts | 51° |
| 2026-05-07 20:31 | 60.38846 | 24.63369 | 3633 ft | 252 kts | 51° |
| 2026-05-07 20:31 | 60.39884 | 24.66229 | 3529 ft | 253 kts | 51° |
| 2026-05-07 20:32 | 60.40926 | 24.69093 | 3379 ft | 252 kts | 51° |
| 2026-05-07 20:32 | 60.41944 | 24.71886 | 3277 ft | 239 kts | 50° |
| 2026-05-07 20:32 | 60.42896 | 24.74511 | 3212 ft | 223 kts | 51° |
| 2026-05-07 20:32 | 60.43728 | 24.77072 | 3057 ft | 215 kts | 59° |
| 2026-05-07 20:33 | 60.44167 | 24.79925 | 2949 ft | 212 kts | 81° |
| 2026-05-07 20:33 | 60.44011 | 24.82843 | 2846 ft | 209 kts | 105° |
| 2026-05-07 20:33 | 60.43294 | 24.85375 | 2706 ft | 208 kts | 128° |
| 2026-05-07 20:33 | 60.42191 | 24.87140 | 2657 ft | 198 kts | 152° |
| 2026-05-07 20:34 | 60.40945 | 24.88208 | 2423 ft | 193 kts | 153° |
| 2026-05-07 20:34 | 60.39797 | 24.89404 | 2166 ft | 179 kts | 148° |
| 2026-05-07 20:34 | 60.38730 | 24.90586 | 1918 ft | 173 kts | 149° |
| 2026-05-07 20:34 | 60.37671 | 24.91656 | 1560 ft | 168 kts | 153° |
| 2026-05-07 20:35 | 60.36638 | 24.92697 | 1184 ft | 164 kts | 149° |
| 2026-05-07 20:35 | 60.35661 | 24.93770 | 836 ft | 158 kts | 152° |
| 2026-05-07 20:35 | 60.34711 | 24.94727 | 596 ft | 148 kts | 154° |
| 2026-05-07 20:35 | 60.33822 | 24.95653 | 396 ft | 143 kts | 153° |
| 2026-05-07 20:36 | 60.32939 | 24.96550 | 213 ft | 140 kts | 154° |
| 2026-05-07 20:36 | 60.32145 | 24.97347 | 156 ft | 108 kts | 153° |
| 2026-05-07 20:36 | 60.31628 | 24.97881 | 154 ft | 59 kts | 153° |
| 2026-05-07 20:36 | 60.31374 | 24.98146 | 157 ft | 36 kts | 153° |
| 2026-05-07 20:37 | 60.31159 | 24.98366 | 160 ft | 27 kts | 153° |
| 2026-05-07 20:37 | 60.31031 | 24.98446 | 155 ft | 19 kts | 201° |
| 2026-05-07 20:37 | 60.30974 | 24.98303 | 160 ft | 7 kts | 252° |
| 2026-05-07 20:37 | 60.30976 | 24.98235 | 161 ft | 3 kts | 292° |
| 2026-05-07 20:38 | 60.30999 | 24.98202 | 161 ft | 8 kts | 349° |
| 2026-05-07 20:38 | 60.31074 | 24.98125 | 162 ft | 17 kts | 333° |
| 2026-05-07 20:38 | 60.31187 | 24.98008 | 162 ft | 19 kts | 332° |
| 2026-05-07 20:38 | 60.31314 | 24.97876 | 161 ft | 22 kts | 333° |
| 2026-05-07 20:39 | 60.31455 | 24.97730 | 161 ft | 24 kts | 332° |
| 2026-05-07 20:39 | 60.31605 | 24.97577 | 162 ft | 25 kts | 334° |
| 2026-05-07 20:39 | 60.31762 | 24.97410 | 161 ft | 26 kts | 334° |
| 2026-05-07 20:39 | 60.31883 | 24.97287 | 162 ft | 15 kts | 333° |
| 2026-05-07 20:40 | 60.31933 | 24.97174 | 163 ft | 11 kts | 260° |
| 2026-05-07 20:40 | 60.31889 | 24.97096 | 163 ft | 7 kts | 239° |
| 2026-05-07 20:40 | 60.31869 | 24.97019 | 163 ft | 5 kts | 243° |
| 2026-05-07 20:40 | 60.31863 | 24.96996 | 164 ft | 0 kts | 243° |